Time;durP1;ratioP1;P1;durP2;ratioP2;P2;SDS_P1;SDS_P2;PMS_P1;PMS_P2;Temp;Humidity;BMP_temperature;BMP_pressure;BME280_temperature;BME280_humidity;BME280_pressure;Samples;Min_cycle;Max_cycle;Signal;HPM_P1;HPM_P2
2024/01/24 00:00:27;;;;;;;7.72;1.98;;;;;;;6.54;67.11;99344.59;5346835;26;20135;-84
2024/01/24 00:02:53;;;;;;;10.40;2.40;;;;;;;6.74;68.11;99347.91;5346547;26;20064;-84
2024/01/24 00:05:20;;;;;;;7.68;2.10;;;;;;;6.79;67.59;99353.84;5346395;26;20108;-84
2024/01/24 00:07:47;;;;;;;7.45;1.80;;;;;;;6.93;66.73;99351.19;5346774;26;20048;-84
2024/01/24 00:10:14;;;;;;;;;;;;;;;6.73;67.68;99346.19;5346772;26;20107;-84
2024/01/24 00:12:41;;;;;;;9.93;2.35;;;;;;;6.07;69.37;99346.56;5346729;26;19990;-84
2024/01/24 00:15:08;;;;;;;10.48;1.95;;;;;;;6.26;68.89;99346.44;5346797;26;20087;-84
2024/01/24 00:17:35;;;;;;;8.88;2.08;;;;;;;6.08;69.48;99343.13;5346399;26;20073;-84
2024/01/24 00:20:03;;;;;;;6.87;1.65;;;;;;;6.98;66.83;99339.16;5346811;26;20057;-84
2024/01/24 00:22:30;;;;;;;6.05;1.98;;;;;;;6.67;67.16;99341.09;5346632;26;20130;-84
2024/01/24 00:24:56;;;;;;;6.03;1.80;;;;;;;6.18;68.72;99355.91;5346396;26;20063;-84
2024/01/24 00:27:23;;;;;;;9.48;2.00;;;;;;;6.35;68.05;99352.38;5346336;26;20058;-84
2024/01/24 00:29:50;;;;;;;6.75;1.70;;;;;;;6.55;67.11;99344.59;5346826;26;20666;-84
2024/01/24 00:32:17;;;;;;;;;;;;;;;6.30;68.39;99351.56;5346668;26;20106;-82
2024/01/24 00:34:44;;;;;;;6.78;1.67;;;;;;;6.01;70.05;99350.84;5346649;26;19968;-84
2024/01/24 00:37:11;;;;;;;7.03;1.80;;;;;;;6.14;69.87;99354.19;5346513;26;20052;-84
2024/01/24 00:39:38;;;;;;;6.10;1.50;;;;;;;5.94;70.94;99337.19;5346477;26;20091;-84
2024/01/24 00:42:05;;;;;;;13.57;1.90;;;;;;;6.53;68.37;99337.78;5346260;26;20068;-84
2024/01/24 00:44:32;;;;;;;5.65;1.73;;;;;;;5.96;68.58;99338.06;5346688;26;20044;-84
2024/01/24 00:46:59;;;;;;;7.65;2.30;;;;;;;5.38;73.70;99330.47;5346280;26;20072;-84
2024/01/24 00:49:25;;;;;;;;;;;;;;;5.35;74.26;99335.59;5347069;26;20070;-84
2024/01/24 00:51:52;;;;;;;9.35;2.22;;;;;;;5.11;75.60;99328.81;5346597;26;20005;-84
2024/01/24 00:54:20;;;;;;;7.18;1.70;;;;;;;4.65;78.99;99328.75;5345818;26;20328;-84
2024/01/24 00:56:47;;;;;;;5.45;1.62;;;;;;;4.79;79.67;99335.63;5346437;26;20048;-84
2024/01/24 00:59:14;;;;;;;4.50;1.60;;;;;;;4.85;79.25;99336.47;5346383;26;20072;-84
2024/01/24 01:01:41;;;;;;;8.60;2.50;;;;;;;5.07;77.51;99341.59;5346423;26;20131;-84
2024/01/24 01:04:08;;;;;;;9.35;1.80;;;;;;;5.70;74.28;99345.78;5346707;26;20399;-84
2024/01/24 01:06:35;;;;;;;9.85;2.10;;;;;;;6.00;71.99;99349.97;5346145;26;20124;-84
2024/01/24 01:09:02;;;;;;;7.28;1.73;;;;;;;5.83;72.43;99341.47;5346787;26;20067;-84
2024/01/24 01:11:29;;;;;;;9.00;1.67;;;;;;;5.85;72.59;99320.97;5346499;26;20060;-84
2024/01/24 01:13:56;;;;;;;6.00;2.15;;;;;;;5.35;74.09;99329.63;5346061;26;20053;-84
2024/01/24 01:16:23;;;;;;;;;;;;;;;5.50;74.03;99321.91;5346653;26;20044;-84
2024/01/24 01:18:49;;;;;;;5.32;1.80;;;;;;;5.57;73.00;99315.09;5346809;26;20012;-84
2024/01/24 01:21:16;;;;;;;3.70;1.52;;;;;;;5.50;72.09;99320.22;5346104;26;20117;-84
2024/01/24 01:23:43;;;;;;;5.72;1.83;;;;;;;5.52;72.53;99309.97;5326756;26;20066;-84
2024/01/24 01:26:10;;;;;;;;;;;;;;;5.79;72.09;99314.16;5346741;26;20058;-84
2024/01/24 01:28:37;;;;;;;8.60;2.00;;;;;;;6.06;70.39;99303.84;5346294;26;20413;-84
2024/01/24 01:31:05;;;;;;;;;;;;;;;5.64;71.63;99292.03;5346764;26;20109;-84
2024/01/24 01:33:32;;;;;;;10.43;1.85;;;;;;;5.75;71.29;99292.00;5346553;26;19965;-84
2024/01/24 01:35:59;;;;;;;9.35;2.00;;;;;;;5.49;73.10;99289.50;5346138;26;20048;-84
2024/01/24 01:38:43;;;;;;;10.30;2.00;;;;;;;5.75;71.83;99285.16;5346710;26;20057;-84
2024/01/24 01:41:09;;;;;;;9.55;2.20;;;;;;;5.66;71.85;99292.03;5345964;26;20068;-84
2024/01/24 01:43:36;;;;;;;;;;;;;;;5.56;72.42;99287.78;5346989;26;20049;-84
2024/01/24 01:46:07;;;;;;;8.70;2.47;;;;;;;5.21;74.01;99292.13;5346450;26;19962;-84
2024/01/24 01:48:34;;;;;;;7.40;2.53;;;;;;;4.62;77.22;99284.47;5346187;26;20110;-84
2024/01/24 01:51:01;;;;;;;7.40;2.30;;;;;;;4.33;80.87;99290.38;5346396;26;20052;-84
2024/01/24 01:53:28;;;;;;;6.62;2.45;;;;;;;4.45;81.85;99293.78;5346416;26;20407;-84
2024/01/24 01:55:55;;;;;;;9.57;2.42;;;;;;;4.50;81.96;99299.78;5346062;26;20094;-84
2024/01/24 01:58:22;;;;;;;9.20;2.70;;;;;;;4.56;81.16;99294.66;5346476;26;20067;-84
2024/01/24 02:00:50;;;;;;;;;;;;;;;4.55;81.01;99288.69;5346746;26;20112;-84
2024/01/24 02:03:17;;;;;;;10.68;2.75;;;;;;;4.55;80.82;99286.16;5346213;26;20013;-84
2024/01/24 02:05:44;;;;;;;11.10;2.42;;;;;;;4.68;79.92;99283.59;5346104;26;20395;-84
2024/01/24 02:08:11;;;;;;;10.40;2.87;;;;;;;4.64;80.01;99283.59;5346389;26;20071;-84
2024/01/24 02:10:38;;;;;;;10.27;3.05;;;;;;;4.62;79.71;99279.34;5326404;26;20061;-84
2024/01/24 02:13:05;;;;;;;14.80;3.42;;;;;;;4.75;79.17;99267.41;5326471;26;20060;-84
2024/01/24 02:15:32;;;;;;;11.32;3.78;;;;;;;4.69;79.21;99262.31;5346268;26;20040;-84
2024/01/24 02:17:59;;;;;;;10.65;3.05;;;;;;;4.96;77.88;99246.09;5346000;26;20074;-84
2024/01/24 02:20:29;;;;;;;11.93;3.37;;;;;;;5.12;77.39;99243.53;5346386;26;20074;-84
2024/01/24 02:22:55;;;;;;;9.50;2.87;;;;;;;4.61;79.62;99237.59;5326579;26;20052;-84
2024/01/24 02:25:23;;;;;;;9.52;2.70;;;;;;;5.04;77.65;99237.56;5345888;26;20103;-84
2024/01/24 02:27:50;;;;;;;10.43;3.00;;;;;;;5.45;75.07;99240.03;5346264;26;20110;-84
2024/01/24 02:30:17;;;;;;;11.55;2.90;;;;;;;5.10;77.07;99234.97;5346041;26;20060;-84
2024/01/24 02:32:44;;;;;;;8.27;2.97;;;;;;;5.13;77.52;99237.56;5346186;26;20067;-84
2024/01/24 02:35:10;;;;;;;8.50;2.58;;;;;;;4.86;78.79;99235.88;5346211;26;20044;-84
2024/01/24 02:37:38;;;;;;;;;;;;;;;5.20;77.33;99233.25;5346263;26;20620;-84
2024/01/24 02:40:06;;;;;;;6.15;2.33;;;;;;;5.20;77.19;99223.87;5326720;26;19967;-84
2024/01/24 02:42:33;;;;;;;6.00;2.03;;;;;;;5.39;76.29;99221.25;5345732;26;20049;-84
2024/01/24 02:45:00;;;;;;;10.20;2.12;;;;;;;5.43;76.02;99225.53;5345749;26;20045;-84
2024/01/24 02:47:27;;;;;;;7.03;1.90;;;;;;;5.37;75.35;99223.84;5326344;26;20117;-84
2024/01/24 02:49:56;;;;;;;5.03;1.87;;;;;;;5.71;73.64;99223.69;5346224;26;20102;-84
2024/01/24 02:52:22;;;;;;;8.80;2.20;;;;;;;5.63;73.93;99207.50;5345653;26;20334;-84
2024/01/24 02:54:49;;;;;;;;;;;;;;;5.46;74.24;99211.00;5346323;26;20044;-84
2024/01/24 02:57:16;;;;;;;7.45;2.40;;;;;;;5.44;74.04;99214.44;5346099;26;20319;-84
2024/01/24 02:59:43;;;;;;;7.10;2.25;;;;;;;5.33;73.89;99209.34;5345968;26;20103;-84
2024/01/24 03:02:10;;;;;;;;;;;;;;;5.52;73.16;99203.28;5346273;26;20109;-84
2024/01/24 03:04:37;;;;;;;7.28;2.53;;;;;;;5.62;73.28;99190.44;5346146;26;20531;-84
2024/01/24 03:07:04;;;;;;;8.43;2.53;;;;;;;5.68;72.87;99193.00;5345505;26;20430;-84
2024/01/24 03:09:30;;;;;;;8.73;2.80;;;;;;;5.77;72.60;99182.72;5346121;26;20071;-84
2024/01/24 03:11:57;;;;;;;9.25;2.40;;;;;;;5.71;73.07;99175.91;5345994;26;20078;-84
2024/01/24 03:14:24;;;;;;;;;;;;;;;5.69;73.12;99169.94;5345836;26;20044;-84
2024/01/24 03:16:51;;;;;;;9.30;2.72;;;;;;;5.54;73.82;99171.75;5346153;26;20547;-84
2024/01/24 03:19:18;;;;;;;;;;;;;;;5.25;75.26;99161.63;5347175;26;20072;-84
2024/01/24 03:21:46;;;;;;;9.93;2.85;;;;;;;5.00;76.64;99163.37;5346593;26;20469;-84
2024/01/24 03:24:13;;;;;;;7.97;3.00;;;;;;;4.96;77.25;99159.12;5347016;26;20040;-85
2024/01/24 03:26:40;;;;;;;8.23;2.55;;;;;;;4.86;77.51;99158.31;5346426;26;20415;-84
2024/01/24 03:29:07;;;;;;;7.68;2.75;;;;;;;4.83;77.82;99154.06;5347131;26;20071;-85
2024/01/24 03:31:34;;;;;;;11.30;3.12;;;;;;;4.81;77.96;99157.47;5346779;26;20344;-84
2024/01/24 03:34:01;;;;;;;;;;;;;;;4.52;79.22;99147.28;5346795;26;20110;-84
2024/01/24 03:36:28;;;;;;;11.52;2.67;;;;;;;4.80;77.99;99143.00;5346916;26;20017;-84
2024/01/24 03:38:54;;;;;;;;;;;;;;;5.06;76.39;99142.91;5347252;26;20056;-84
2024/01/24 03:41:21;;;;;;;8.65;3.25;;;;;;;5.30;74.08;99137.69;5346152;26;20027;-84
2024/01/24 03:43:48;;;;;;;9.80;3.03;;;;;;;5.68;72.25;99141.78;5346870;26;20041;-85
2024/01/24 03:46:19;;;;;;;7.07;2.97;;;;;;;5.74;72.00;99123.81;5346748;26;20112;-84
2024/01/24 03:48:46;;;;;;;9.38;3.08;;;;;;;5.57;72.97;99123.06;5346447;26;20115;-84
2024/01/24 03:51:14;;;;;;;12.50;4.47;;;;;;;5.37;74.34;99123.16;5346790;26;20116;-84
2024/01/24 03:53:40;;;;;;;12.37;3.90;;;;;;;5.27;74.86;99109.56;5346804;26;20083;-84
2024/01/24 03:56:07;;;;;;;10.45;3.78;;;;;;;5.07;75.54;99104.53;5346321;26;20422;-84
2024/01/24 03:58:36;;;;;;;9.85;3.55;;;;;;;5.23;75.32;99095.94;5346893;26;20090;-84
2024/01/24 04:01:03;;;;;;;9.10;3.05;;;;;;;5.35;74.76;99117.22;5346719;26;20064;-84
2024/01/24 04:03:30;;;;;;;11.77;3.53;;;;;;;5.44;74.04;99112.91;5346570;26;20130;-84
2024/01/24 04:05:58;;;;;;;9.77;3.42;;;;;;;5.06;75.38;99105.38;5346712;26;20357;-84
2024/01/24 04:08:24;;;;;;;11.30;3.42;;;;;;;5.01;75.83;99112.25;5346665;26;20429;-84
2024/01/24 04:10:51;;;;;;;;;;;;;;;5.07;75.81;99103.69;5346778;26;20052;-84
2024/01/24 04:13:18;;;;;;;11.25;4.10;;;;;;;5.07;75.93;99113.91;5346749;26;19967;-84
2024/01/24 04:15:44;;;;;;;;;;;;;;;4.87;77.09;99104.59;5346628;26;20065;-83
2024/01/24 04:18:11;;;;;;;10.88;3.97;;;;;;;4.99;76.79;99107.97;5346820;26;19988;-84
2024/01/24 04:20:38;;;;;;;10.32;4.10;;;;;;;4.82;76.94;99111.44;5346752;26;20052;-84
2024/01/24 04:23:05;;;;;;;12.45;4.53;;;;;;;4.76;77.61;99108.87;5346343;26;20048;-84
2024/01/24 04:25:32;;;;;;;13.50;4.30;;;;;;;4.68;78.04;99108.06;5346540;26;20072;-84
2024/01/24 04:27:59;;;;;;;15.20;4.60;;;;;;;4.46;78.89;99101.28;5346529;26;20075;-84
2024/01/24 04:30:26;;;;;;;12.88;4.87;;;;;;;4.50;79.00;99091.06;5346058;26;20714;-83
2024/01/24 04:32:53;;;;;;;14.52;4.87;;;;;;;4.55;78.58;99081.66;5346588;26;20116;-84
2024/01/24 04:35:20;;;;;;;13.52;4.95;;;;;;;4.65;78.13;99090.16;5346609;26;20111;-84
2024/01/24 04:37:47;;;;;;;12.63;5.12;;;;;;;4.63;77.89;99068.88;5346272;26;20118;-84
2024/01/24 04:40:13;;;;;;;;;;;;;;;4.52;78.42;99066.34;5346978;26;20072;-84
2024/01/24 04:42:40;;;;;;;11.63;4.35;;;;;;;4.76;77.46;99062.00;5346272;26;20007;-84
2024/01/24 04:45:08;;;;;;;14.15;4.28;;;;;;;4.79;77.52;99062.87;5346137;26;20098;-83
2024/01/24 04:47:35;;;;;;;11.10;4.25;;;;;;;5.03;76.51;99061.06;5346709;26;20091;-84
2024/01/24 04:50:01;;;;;;;11.88;4.43;;;;;;;5.07;76.13;99058.47;5346636;26;20063;-84
2024/01/24 04:52:29;;;;;;;12.68;4.87;;;;;;;5.18;75.77;99058.44;5346173;26;20060;-84
2024/01/24 04:54:55;;;;;;;;;;;;;;;5.13;75.81;99049.94;5346855;26;20399;-84
2024/01/24 04:57:22;;;;;;;11.15;4.80;;;;;;;4.97;76.32;99043.19;5346367;26;19978;-84
2024/01/24 04:59:49;;;;;;;12.40;5.15;;;;;;;5.13;76.09;99029.47;5346208;26;20105;-84
2024/01/24 05:02:22;;;;;;;13.05;5.32;;;;;;;5.10;75.93;99022.66;5346650;26;20059;-84
2024/01/24 05:04:49;;;;;;;16.37;5.80;;;;;;;5.05;76.33;99026.09;5346257;26;20056;-84
2024/01/24 05:07:16;;;;;;;;;;;;;;;5.33;75.19;99027.66;5346719;26;20064;-84
2024/01/24 05:09:43;;;;;;;16.02;5.97;;;;;;;5.26;75.56;99030.25;5346818;26;20000;-84
2024/01/24 05:12:10;;;;;;;14.93;6.12;;;;;;;5.37;75.45;99021.66;5346134;26;20071;-84
2024/01/24 05:14:37;;;;;;;13.30;6.12;;;;;;;5.47;74.97;99030.97;5346449;26;20065;-84
2024/01/24 05:17:04;;;;;;;13.07;6.07;;;;;;;5.17;76.54;99020.91;5346426;26;20541;-84
2024/01/24 05:19:31;;;;;;;13.50;6.20;;;;;;;5.06;77.60;99020.13;5346293;26;20059;-84
2024/01/24 05:21:58;;;;;;;14.30;6.95;;;;;;;5.25;77.16;99020.88;5346440;26;20112;-84
2024/01/24 05:24:25;;;;;;;18.70;7.68;;;;;;;5.11;77.81;99028.62;5346480;26;20071;-84
2024/01/24 05:26:52;;;;;;;18.05;7.65;;;;;;;5.23;77.09;99029.41;5326489;26;20057;-84
2024/01/24 05:29:19;;;;;;;16.45;7.40;;;;;;;5.28;76.81;99031.09;5326908;26;20072;-84
2024/01/24 05:31:46;;;;;;;15.88;7.05;;;;;;;5.35;76.64;99041.28;5346768;26;20076;-84
2024/01/24 05:34:13;;;;;;;;;;;;;;;5.11;77.92;99041.44;5346480;26;20057;-84
2024/01/24 05:36:40;;;;;;;17.63;8.27;;;;;;;5.06;78.75;99044.00;5346579;26;20325;-84
2024/01/24 05:39:06;;;;;;;;;;;;;;;4.81;79.98;99038.16;5346945;26;20048;-84
2024/01/24 05:41:35;;;;;;;18.10;8.60;;;;;;;4.97;79.71;99038.06;5345776;26;20014;-84
2024/01/24 05:44:03;;;;;;;19.70;8.70;;;;;;;5.05;79.54;99023.53;5346586;26;20118;-85
2024/01/24 05:46:30;;;;;;;18.58;9.40;;;;;;;4.71;81.32;99016.03;5346158;26;20071;-84
2024/01/24 05:49:00;;;;;;;19.40;9.95;;;;;;;4.94;80.86;99019.31;5326475;26;20063;-84
2024/01/24 05:51:28;;;;;;;20.73;9.98;;;;;;;4.76;82.20;99029.62;5346301;26;20048;-84
2024/01/24 05:53:55;;;;;;;21.52;10.05;;;;;;;4.79;82.47;99033.91;5346140;26;20075;-84
2024/01/24 05:56:21;;;;;;;;;;;;;;;4.65;84.24;99039.03;5346663;26;20118;-84
2024/01/24 05:58:48;;;;;;;20.17;10.82;;;;;;;4.27;86.64;99037.44;5346658;26;19956;-84
2024/01/24 06:01:15;;;;;;;24.50;12.20;;;;;;;4.42;86.70;99023.78;5345777;26;20048;-84
2024/01/24 06:03:42;;;;;;;25.10;12.00;;;;;;;4.40;87.16;99015.28;5346413;26;20070;-84
2024/01/24 06:06:09;;;;;;;24.92;12.20;;;;;;;4.55;86.59;99006.69;5346298;26;20072;-84
2024/01/24 06:08:37;;;;;;;25.48;11.88;;;;;;;4.48;87.10;99028.88;5346070;26;20052;-84
2024/01/24 06:11:04;;;;;;;22.45;11.80;;;;;;;4.44;87.61;99011.00;5346186;26;20096;-84
2024/01/24 06:13:31;;;;;;;24.67;12.40;;;;;;;4.61;87.11;99028.00;5346404;26;20107;-84
2024/01/24 06:15:58;;;;;;;26.50;12.98;;;;;;;4.51;87.45;99028.88;5345805;26;20098;-84
2024/01/24 06:18:25;;;;;;;26.02;12.52;;;;;;;4.38;88.30;99024.66;5346349;26;20108;-84
2024/01/24 06:20:52;;;;;;;23.42;12.57;;;;;;;4.28;89.33;99028.09;5346249;26;20056;-85
2024/01/24 06:23:19;;;;;;;25.12;12.77;;;;;;;4.56;87.47;99036.50;5326285;26;20423;-84
2024/01/24 06:25:46;;;;;;;27.42;13.10;;;;;;;4.65;87.22;99028.81;5346305;26;20518;-84
2024/01/24 06:28:13;;;;;;;23.05;12.32;;;;;;;4.67;87.27;99006.66;5346261;26;20063;-85
2024/01/24 06:30:40;;;;;;;28.38;13.23;;;;;;;4.85;86.49;98998.06;5346064;26;20049;-85
2024/01/24 06:33:07;;;;;;;28.00;13.38;;;;;;;4.69;87.50;98994.75;5346095;26;20063;-84
2024/01/24 06:35:34;;;;;;;24.30;12.60;;;;;;;4.66;87.78;98971.72;5345997;26;20822;-84
2024/01/24 06:38:01;;;;;;;23.90;11.52;;;;;;;4.69;87.36;98945.31;5345859;26;20139;-84
2024/01/24 06:40:28;;;;;;;24.17;11.98;;;;;;;4.61;87.71;98937.69;5340418;26;147289;-84
2024/01/24 06:42:54;;;;;;;;;;;;;;;4.77;86.62;98929.06;5346014;26;20395;-84
2024/01/24 06:45:21;;;;;;;24.65;12.35;;;;;;;5.26;84.34;98903.16;5346167;26;19967;-84
2024/01/24 06:47:49;;;;;;;24.10;11.98;;;;;;;5.31;83.37;98909.09;5346398;26;20059;-84
2024/01/24 06:50:17;;;;;;;26.17;11.52;;;;;;;5.23;84.01;98905.75;5345826;26;20131;-84
2024/01/24 06:52:45;;;;;;;22.37;11.18;;;;;;;4.74;87.17;98887.31;5345572;26;20092;-84
2024/01/24 06:55:13;;;;;;;18.70;8.90;;;;;;;4.55;88.35;98886.56;5346029;26;20056;-84
2024/01/24 06:57:40;;;;;;;18.23;7.60;;;;;;;4.61;88.34;98882.28;5345898;26;20399;-84
2024/01/24 07:00:08;;;;;;;16.83;7.80;;;;;;;4.80;87.23;98875.38;5326954;26;20056;-84
2024/01/24 07:02:36;;;;;;;19.25;8.25;;;;;;;5.02;85.58;98870.09;5346061;26;20680;-84
2024/01/24 07:05:03;;;;;;;17.30;7.85;;;;;;;5.00;84.92;98874.34;5345708;26;20090;-84
2024/01/24 07:07:31;;;;;;;18.02;8.38;;;;;;;4.98;84.92;98884.59;5346496;26;20045;-84
2024/01/24 07:09:58;;;;;;;19.35;8.55;;;;;;;5.21;83.57;98879.34;5346043;26;20048;-84
2024/01/24 07:12:25;;;;;;;17.05;8.30;;;;;;;5.39;83.21;98901.34;5345422;26;20118;-84
2024/01/24 07:14:52;;;;;;;20.23;9.20;;;;;;;5.58;82.51;98900.34;5345821;26;20074;-84
2024/01/24 07:17:19;;;;;;;19.73;9.50;;;;;;;5.43;83.76;98905.59;5345985;26;20454;-84
2024/01/24 07:19:47;;;;;;;19.10;9.38;;;;;;;5.58;83.29;98909.72;5345644;26;20048;-84
2024/01/24 07:22:15;;;;;;;23.20;10.02;;;;;;;5.32;84.84;98898.00;5345829;26;20065;-84
2024/01/24 07:24:46;;;;;;;21.80;9.98;;;;;;;5.26;85.53;98897.19;5326291;26;20075;-81
2024/01/24 07:27:13;;;;;;;19.87;8.95;;;;;;;5.06;86.64;98887.97;5345491;26;20052;-80
2024/01/24 07:29:40;;;;;;;21.65;9.25;;;;;;;5.18;86.75;98869.97;5347095;26;20100;-82
2024/01/24 07:32:07;;;;;;;17.27;8.45;;;;;;;5.28;86.52;98875.84;5314710;26;20138;-80
2024/01/24 07:34:38;;;;;;;13.82;6.55;;;;;;;5.06;85.52;98833.41;5348911;26;20419;-82
2024/01/24 07:37:07;;;;;;;16.75;6.30;;;;;;;5.35;86.09;98884.34;5326599;26;20063;-82
2024/01/24 07:39:34;;;;;;;12.98;5.72;;;;;;;5.09;86.50;98885.38;5345432;26;20045;-82
2024/01/24 07:42:02;;;;;;;13.18;5.68;;;;;;;5.10;86.72;98878.53;5345230;26;20068;-82
2024/01/24 07:44:29;;;;;;;15.20;5.57;;;;;;;5.45;85.70;98874.00;5345792;26;20402;-82
2024/01/24 07:46:58;;;;;;;12.75;5.70;;;;;;;5.39;85.05;98865.53;5345485;26;20110;-82
2024/01/24 07:49:25;;;;;;;13.75;6.35;;;;;;;5.13;86.69;98850.41;5347621;26;20063;-83
2024/01/24 07:51:52;;;;;;;12.52;5.20;;;;;;;5.43;84.93;98856.97;5345921;26;20060;-81
2024/01/24 07:54:21;;;;;;;12.55;5.28;;;;;;;5.41;85.07;98833.94;5345162;26;20057;-81
2024/01/24 07:56:48;;;;;;;12.25;5.07;;;;;;;5.65;83.50;98847.38;5325802;26;20116;-81
2024/01/24 07:59:16;;;;;;;13.88;5.80;;;;;;;5.50;83.98;98850.91;5345338;26;20041;-81
2024/01/24 08:01:47;;;;;;;11.98;5.35;;;;;;;5.34;85.62;98842.53;5344970;26;20057;-82
2024/01/24 08:04:16;;;;;;;12.93;5.07;;;;;;;5.40;84.75;98831.38;5346488;26;20060;-82
2024/01/24 08:06:45;;;;;;;12.57;5.32;;;;;;;5.57;83.76;98838.91;5346293;26;20076;-82
2024/01/24 08:09:13;;;;;;;12.95;5.93;;;;;;;5.75;82.29;98846.41;5346403;26;20055;-82
2024/01/24 08:11:41;;;;;;;13.38;6.50;;;;;;;5.84;81.57;98848.00;5326847;26;20060;-81
2024/01/24 08:14:08;;;;;;;16.58;8.38;;;;;;;5.62;82.57;98837.13;5346298;26;20061;-81
2024/01/24 08:16:35;;;;;;;17.02;7.97;;;;;;;5.40;83.34;98839.91;5346570;26;20460;-81
2024/01/24 08:19:03;;;;;;;16.15;7.68;;;;;;;5.24;84.21;98838.38;5327106;26;20411;-81
2024/01/24 08:21:30;;;;;;;17.55;7.57;;;;;;;5.38;84.16;98839.09;5346145;26;20343;-81
2024/01/24 08:23:57;;;;;;;15.38;7.80;;;;;;;5.50;83.14;98835.56;5346691;26;20102;-82
2024/01/24 08:26:24;;;;;;;19.40;8.13;;;;;;;5.34;84.13;98834.87;5346512;26;20052;-81
2024/01/24 08:28:52;;;;;;;18.15;8.05;;;;;;;5.26;84.94;98846.88;5346052;26;20079;-81
2024/01/24 08:31:19;;;;;;;17.30;7.18;;;;;;;5.25;85.17;98850.31;5346581;26;20061;-80
2024/01/24 08:33:46;;;;;;;15.70;7.20;;;;;;;5.37;84.28;98831.44;5346325;26;20066;-81
2024/01/24 08:36:18;;;;;;;14.93;7.28;;;;;;;5.51;84.00;98838.09;5346117;26;20053;-80
2024/01/24 08:38:45;;;;;;;14.87;6.95;;;;;;;5.17;85.37;98842.69;5346516;26;20045;-81
2024/01/24 08:41:12;;;;;;;14.52;6.95;;;;;;;5.04;87.03;98838.53;5346450;26;20108;-81
2024/01/24 08:43:39;;;;;;;;;;;;;;;4.92;88.21;98830.97;5346521;26;20052;-81
2024/01/24 08:46:06;;;;;;;15.52;6.37;;;;;;;4.70;88.91;98816.62;5346582;26;19968;-80
2024/01/24 08:48:33;;;;;;;13.80;5.85;;;;;;;4.96;88.06;98814.72;5346647;26;20044;-81
2024/01/24 08:51:00;;;;;;;14.10;6.07;;;;;;;5.02;87.14;98819.81;5346185;26;20071;-81
2024/01/24 08:53:27;;;;;;;15.23;6.65;;;;;;;4.98;86.96;98815.56;5326893;26;20060;-80
2024/01/24 08:55:54;;;;;;;13.10;5.87;;;;;;;5.26;85.65;98798.25;5326582;26;20048;-81
2024/01/24 08:58:21;;;;;;;13.45;5.93;;;;;;;5.41;84.18;98800.66;5346058;26;20461;-81
2024/01/24 09:00:50;;;;;;;13.75;6.60;;;;;;;5.39;84.01;98779.34;5346425;26;20405;-81
2024/01/24 09:03:18;;;;;;;13.88;5.65;;;;;;;5.33;83.27;98776.88;5345653;26;20056;-82
2024/01/24 09:05:46;;;;;;;13.32;4.90;;;;;;;5.42;82.13;98766.56;5346603;26;20056;-82
2024/01/24 09:08:13;;;;;;;11.85;4.82;;;;;;;5.43;82.22;98765.69;5346637;26;20045;-81
2024/01/24 09:10:40;;;;;;;11.50;4.85;;;;;;;5.73;79.76;98761.06;5346177;26;20123;-81
2024/01/24 09:13:07;;;;;;;11.48;4.40;;;;;;;5.88;79.61;98760.88;5346388;26;20071;-80
2024/01/24 09:15:34;;;;;;;12.68;4.55;;;;;;;6.00;78.48;98758.19;5326161;26;20052;-81
2024/01/24 09:18:02;;;;;;;9.95;3.80;;;;;;;6.04;77.57;98741.06;5326084;26;20075;-81
2024/01/24 09:20:29;;;;;;;8.70;3.90;;;;;;;6.05;76.46;98735.91;5346283;26;20061;-81
2024/01/24 09:22:56;;;;;;;9.50;3.55;;;;;;;6.19;75.61;98745.16;5346207;26;20068;-82
2024/01/24 09:25:23;;;;;;;11.35;4.20;;;;;;;6.10;75.97;98735.87;5345750;26;20093;-80
2024/01/24 09:27:51;;;;;;;11.25;4.10;;;;;;;6.28;75.02;98734.78;5324762;26;20070;-81
2024/01/24 09:30:19;;;;;;;11.15;3.87;;;;;;;6.32;73.84;98736.41;5346306;26;20235;-81
2024/01/24 09:32:46;;;;;;;10.13;3.87;;;;;;;6.55;72.89;98733.50;5344409;26;20099;-81
2024/01/24 09:35:14;;;;;;;10.38;4.32;;;;;;;6.65;72.90;98722.22;5346216;26;20052;-81
2024/01/24 09:37:41;;;;;;;9.85;3.87;;;;;;;6.77;71.94;98728.84;5346614;26;20134;-82
2024/01/24 09:40:09;;;;;;;9.32;4.00;;;;;;;6.88;71.96;98747.47;5345909;26;20091;-82
2024/01/24 09:42:41;;;;;;;10.23;4.22;;;;;;;6.83;72.48;98714.22;5346281;26;20075;-82
2024/01/24 09:45:09;;;;;;;11.43;4.20;;;;;;;6.82;72.96;98706.56;5346508;26;20049;-81
2024/01/24 09:47:37;;;;;;;11.18;4.07;;;;;;;7.17;71.22;98706.75;5326181;26;20076;-80
2024/01/24 09:50:06;;;;;;;9.50;3.95;;;;;;;7.39;70.23;98708.94;5346264;26;20407;-81
2024/01/24 09:52:33;;;;;;;10.15;3.95;;;;;;;7.21;70.50;98694.72;5326162;26;20071;-80
2024/01/24 09:55:04;;;;;;;9.88;3.97;;;;;;;7.28;70.19;98695.44;5346154;26;20044;-80
2024/01/24 09:57:33;;;;;;;10.82;3.90;;;;;;;7.17;70.94;98688.81;5346449;26;20044;-79
2024/01/24 10:00:00;;;;;;;9.65;3.72;;;;;;;7.14;70.81;98676.03;5345798;26;20125;-79
2024/01/24 10:02:27;;;;;;;10.55;4.00;;;;;;;7.46;69.84;98661.72;5326421;26;20382;-79
2024/01/24 10:04:55;;;;;;;9.40;3.70;;;;;;;7.50;68.20;98630.81;5346141;26;20051;-79
2024/01/24 10:07:22;;;;;;;7.05;3.22;;;;;;;7.57;67.63;98640.97;5325984;26;20048;-78
2024/01/24 10:10:09;;;;;;;7.90;3.35;;;;;;;7.65;67.60;98624.47;5346481;26;20076;-79
2024/01/24 10:12:36;;;;;;;10.55;3.70;;;;;;;8.03;65.61;98612.50;5346279;26;20065;-79
2024/01/24 10:15:04;;;;;;;10.05;3.58;;;;;;;8.07;65.75;98596.13;5345748;26;20063;-80
2024/01/24 10:17:31;;;;;;;8.80;3.65;;;;;;;7.94;65.34;98585.31;5346329;26;20105;-79
2024/01/24 10:19:58;;;;;;;9.85;3.62;;;;;;;8.32;64.15;98592.09;5346208;26;20109;-79
2024/01/24 10:22:26;;;;;;;9.38;3.40;;;;;;;8.29;63.72;98592.16;5326069;26;20074;-79
2024/01/24 10:24:55;;;;;;;10.38;4.40;;;;;;;8.07;63.76;98596.13;5346177;26;20064;-79
2024/01/24 10:27:23;;;;;;;10.88;3.70;;;;;;;8.24;64.14;98600.88;5326192;26;20409;-79
2024/01/24 10:29:52;;;;;;;9.63;3.62;;;;;;;8.44;63.44;98590.97;5346206;26;20067;-79
2024/01/24 10:32:20;;;;;;;12.15;3.37;;;;;;;8.40;64.11;98589.38;5326013;26;20056;-79
2024/01/24 10:34:49;;;;;;;10.82;4.10;;;;;;;8.40;63.99;98608.22;5345803;26;20056;-79
2024/01/24 10:37:18;;;;;;;9.75;3.83;;;;;;;8.30;66.22;98593.88;5345892;26;20127;-79
2024/01/24 10:39:47;;;;;;;10.68;4.47;;;;;;;7.86;68.95;98570.94;5346212;26;20068;-79
2024/01/24 10:42:18;;;;;;;8.75;3.40;;;;;;;7.87;69.36;98564.91;5325960;26;20061;-79
2024/01/24 10:44:49;;;;;;;9.98;3.90;;;;;;;7.93;68.71;98570.75;5326708;26;20056;-79
2024/01/24 10:47:17;;;;;;;11.23;4.30;;;;;;;8.21;67.38;98583.81;5326535;26;20051;-79
2024/01/24 10:49:46;;;;;;;8.73;3.40;;;;;;;8.48;67.58;98566.84;5345771;26;20113;-79
2024/01/24 10:52:15;;;;;;;9.65;3.62;;;;;;;8.80;65.02;98560.84;5326328;26;20060;-79
2024/01/24 10:54:43;;;;;;;9.93;3.60;;;;;;;8.61;63.90;98568.25;5326735;26;20083;-79
2024/01/24 10:57:14;;;;;;;11.07;3.72;;;;;;;8.89;63.87;98578.59;5325723;26;20334;-79
2024/01/24 10:59:44;;;;;;;11.35;3.75;;;;;;;8.92;63.50;98565.66;5346131;26;20125;-79
2024/01/24 11:02:11;;;;;;;8.88;3.50;;;;;;;8.95;63.42;98564.75;5345962;26;20053;-79
2024/01/24 11:04:37;;;;;;;;;;;;;;;8.85;61.55;98556.44;5345972;26;20049;-79
2024/01/24 11:07:08;;;;;;;9.45;3.50;;;;;;;8.96;61.71;98553.56;5325971;26;19963;-79
2024/01/24 11:09:54;;;;;;;8.40;3.45;;;;;;;8.65;62.80;98549.25;5325977;26;20403;-79
2024/01/24 11:12:21;;;;;;;9.02;3.40;;;;;;;8.72;62.96;98534.50;5326277;26;20056;-79
2024/01/24 11:14:48;;;;;;;7.80;3.20;;;;;;;8.57;62.63;98520.31;5326246;26;20066;-79
2024/01/24 11:17:16;;;;;;;10.05;4.18;;;;;;;8.71;61.20;98519.94;5345262;26;20052;-79
2024/01/24 11:19:43;;;;;;;9.88;3.87;;;;;;;8.74;62.14;98507.00;5346017;26;20076;-79
2024/01/24 11:22:11;;;;;;;9.68;3.58;;;;;;;8.67;62.50;98500.34;5345869;26;20328;-79
2024/01/24 11:24:52;;;;;;;11.10;3.75;;;;;;;8.96;61.97;98491.78;5345698;26;20418;-79
2024/01/24 11:27:36;;;;;;;8.60;3.62;;;;;;;8.88;60.84;98462.84;5345875;26;20059;-79
2024/01/24 11:30:06;;;;;;;9.23;3.58;;;;;;;8.95;60.83;98472.09;5326848;26;20075;-79
2024/01/24 11:32:54;;;;;;;9.30;3.60;;;;;;;8.77;60.63;98452.88;5344498;26;20064;-79
2024/01/24 11:35:32;;;;;;;10.18;3.70;;;;;;;8.58;61.61;98460.28;5347498;26;20561;-79
2024/01/24 11:38:01;;;;;;;9.32;3.78;;;;;;;8.75;61.07;98443.53;5345798;26;20418;-79
2024/01/24 11:40:37;;;;;;;11.00;3.80;;;;;;;8.59;60.64;98449.09;5327633;26;20057;-79
2024/01/24 11:43:04;;;;;;;9.73;3.37;;;;;;;8.53;61.96;98443.28;5326908;26;20121;-79